Time;durP1;ratioP1;P1;durP2;ratioP2;P2;SDS_P1;SDS_P2;PMS_P1;PMS_P2;Temp;Humidity;BMP_temperature;BMP_pressure;BME280_temperature;BME280_humidity;BME280_pressure;Samples;Min_cycle;Max_cycle;Signal;HPM_P1;HPM_P2
2023/09/27 00:00:31;;;;;;;1.30;0.60;;;;;;;14.44;nan;99970.22;7401409;19;20090;-78
2023/09/27 00:03:00;;;;;;;0.30;0.30;;;;;;;14.39;nan;99984.22;7403903;19;20019;-78
2023/09/27 00:05:26;;;;;;;0.40;0.40;;;;;;;14.34;nan;99976.53;7400652;19;20010;-77
2023/09/27 00:07:52;;;;;;;0.50;0.50;;;;;;;14.36;nan;99979.59;7404138;19;20352;-78
2023/09/27 00:10:18;;;;;;;0.98;0.75;;;;;;;14.46;nan;99980.19;7403828;19;20479;-78
2023/09/27 00:12:48;;;;;;;0.20;0.20;;;;;;;14.52;nan;99983.78;7400138;19;20044;-78
2023/09/27 00:15:15;;;;;;;0.57;0.55;;;;;;;14.61;nan;99983.59;7403013;19;20018;-78
2023/09/27 00:17:43;;;;;;;0.13;0.13;;;;;;;14.64;nan;99994.56;7403338;19;20029;-78
2023/09/27 00:20:11;;;;;;;0.75;0.60;;;;;;;14.56;nan;99993.50;7406073;19;20022;-78
2023/09/27 00:22:37;;;;;;;1.45;0.50;;;;;;;14.59;nan;99981.31;7404591;19;20041;-78
2023/09/27 00:25:04;;;;;;;0.73;0.45;;;;;;;14.72;nan;99987.25;7394145;19;20468;-78
2023/09/27 00:27:31;;;;;;;0.20;0.20;;;;;;;14.77;nan;99983.69;7396717;19;20029;-77
2023/09/27 00:29:57;;;;;;;0.32;0.13;;;;;;;14.77;nan;99989.31;7395279;19;20023;-78
2023/09/27 00:32:24;;;;;;;0.38;0.38;;;;;;;14.63;nan;99993.06;7392016;19;20079;-78
2023/09/27 00:34:50;;;;;;;2.83;1.20;;;;;;;14.84;nan;99990.88;7394994;19;20018;-78
2023/09/27 00:37:16;;;;;;;3.10;0.65;;;;;;;14.88;nan;99986.56;7394797;19;20025;-78
2023/09/27 00:39:42;;;;;;;0.82;0.38;;;;;;;14.00;nan;99992.28;7396248;19;20022;-78
2023/09/27 00:42:08;;;;;;;0.50;0.47;;;;;;;14.25;nan;99968.31;7395977;19;20015;-78
2023/09/27 00:44:35;;;;;;;1.85;0.95;;;;;;;14.20;nan;99972.59;7395860;19;20022;-78
2023/09/27 00:47:03;;;;;;;0.30;0.20;;;;;;;14.30;nan;99978.81;7398287;19;20035;-78
2023/09/27 00:49:30;;;;;;;0.35;0.35;;;;;;;14.33;nan;99972.22;7394353;19;20545;-79
2023/09/27 00:51:58;;;;;;;0.85;0.30;;;;;;;14.18;nan;99963.16;7392771;19;20016;-79
2023/09/27 00:54:25;;;;;;;0.10;0.10;;;;;;;14.44;nan;99952.69;7393229;19;20022;-79
2023/09/27 00:56:52;;;;;;;0.22;0.20;;;;;;;14.48;nan;99953.22;7396238;19;20025;-79
2023/09/27 00:59:19;;;;;;;0.20;0.20;;;;;;;14.53;nan;99949.66;7395801;19;20015;-79
2023/09/27 01:01:46;;;;;;;0.90;0.90;;;;;;;14.54;nan;99962.41;7398924;19;20014;-79
2023/09/27 01:04:16;;;;;;;0.80;0.25;;;;;;;14.52;nan;99953.75;7392882;19;20010;-79
2023/09/27 01:06:43;;;;;;;1.48;0.32;;;;;;;14.54;nan;99956.81;7394468;19;20010;-79
2023/09/27 01:09:11;;;;;;;2.80;0.98;;;;;;;14.55;nan;99955.56;7393195;19;20039;-79
2023/09/27 01:11:38;;;;;;;0.30;0.20;;;;;;;14.59;nan;99963.72;7396738;19;20472;-78
2023/09/27 01:14:05;;;;;;;1.20;0.40;;;;;;;14.61;nan;99964.75;7393337;19;20027;-79
2023/09/27 01:16:32;;;;;;;7.22;0.95;;;;;;;14.60;nan;99966.00;7393764;19;20017;-79
2023/09/27 01:19:02;;;;;;;0.20;0.13;;;;;;;14.59;nan;99956.09;7394128;19;20050;-79
2023/09/27 01:21:28;;;;;;;0.50;0.30;;;;;;;14.60;nan;99963.22;7398143;19;20011;-79
2023/09/27 01:23:55;;;;;;;0.80;0.50;;;;;;;14.57;nan;99969.06;7393404;19;20010;-79
2023/09/27 01:26:23;;;;;;;0.20;0.10;;;;;;;14.55;nan;99947.16;7394112;19;20027;-79
2023/09/27 01:28:49;;;;;;;0.47;0.47;;;;;;;14.53;nan;99946.84;7392798;19;20027;-79
2023/09/27 01:31:15;;;;;;;1.45;0.10;;;;;;;14.50;nan;99950.66;7394860;19;20014;-79
2023/09/27 01:33:41;;;;;;;1.58;0.85;;;;;;;14.47;nan;99951.66;7394724;19;20034;-79
2023/09/27 01:36:07;;;;;;;0.45;0.45;;;;;;;14.44;nan;99935.88;7391681;19;20357;-79
2023/09/27 01:38:34;;;;;;;0.10;0.08;;;;;;;14.39;nan;99928.97;7393097;19;20021;-79
2023/09/27 01:41:00;;;;;;;0.52;0.20;;;;;;;14.39;nan;99933.78;7395115;19;20021;-78
2023/09/27 01:43:26;;;;;;;0.63;0.63;;;;;;;14.39;nan;99933.78;7392634;19;20014;-79
2023/09/27 01:45:52;;;;;;;0.20;0.20;;;;;;;14.42;nan;99922.34;7390149;19;20018;-79
2023/09/27 01:48:20;;;;;;;1.77;0.60;;;;;;;14.43;nan;99923.09;7394124;19;20014;-79
2023/09/27 01:50:46;;;;;;;0.20;0.20;;;;;;;14.45;nan;99917.78;7395437;19;20098;-79
2023/09/27 01:53:12;;;;;;;0.85;0.52;;;;;;;14.54;nan;99928.78;7391195;19;20433;-79
2023/09/27 01:55:39;;;;;;;15.90;0.55;;;;;;;14.51;nan;99932.56;7390597;19;20430;-79
2023/09/27 01:58:05;;;;;;;0.85;0.35;;;;;;;14.44;nan;99933.81;7392224;19;20123;-79
2023/09/27 02:00:31;;;;;;;0.10;0.10;;;;;;;14.65;nan;99928.06;7393274;19;20007;-79
2023/09/27 02:02:59;;;;;;;5.65;1.23;;;;;;;14.73;nan;99935.50;7394411;19;20023;-79
2023/09/27 02:05:27;;;;;;;1.05;0.50;;;;;;;14.79;nan;99949.56;7390412;19;20014;-79
2023/09/27 02:07:54;;;;;;;0.88;0.43;;;;;;;14.82;nan;99954.94;7392273;19;20023;-79
2023/09/27 02:10:21;;;;;;;0.30;0.30;;;;;;;14.87;nan;99950.63;7393762;19;20456;-79
2023/09/27 02:12:47;;;;;;;1.52;0.75;;;;;;;14.89;nan;99951.66;7390947;19;20522;-79
2023/09/27 02:15:14;;;;;;;1.35;0.63;;;;;;;14.84;nan;99946.78;7391193;19;20018;-79
2023/09/27 02:17:42;;;;;;;0.68;0.40;;;;;;;14.84;nan;99943.19;7391006;19;20082;-79
2023/09/27 02:20:10;;;;;;;0.25;0.25;;;;;;;14.86;nan;99937.84;7393175;19;20081;-79
2023/09/27 02:22:38;;;;;;;0.47;0.30;;;;;;;14.91;nan;99929.47;7392253;19;20026;-79
2023/09/27 02:25:09;;;;;;;0.28;0.20;;;;;;;14.95;nan;99932.81;7389192;19;20124;-78
2023/09/27 02:27:36;;;;;;;0.28;0.15;;;;;;;14.98;nan;99936.66;7390749;19;20018;-79
2023/09/27 02:30:07;;;;;;;0.28;0.17;;;;;;;14.97;nan;99935.88;7393066;19;20110;-79
2023/09/27 02:32:34;;;;;;;0.10;0.10;;;;;;;14.93;nan;99921.34;7390928;19;20440;-79
2023/09/27 02:35:00;;;;;;;0.45;0.45;;;;;;;14.89;nan;99903.97;7392085;19;20022;-79
2023/09/27 02:37:27;;;;;;;0.30;0.30;;;;;;;14.89;nan;99895.56;7392478;19;20039;-79
2023/09/27 02:39:53;;;;;;;0.35;0.28;;;;;;;14.90;nan;99899.91;7392644;19;20014;-79
2023/09/27 02:42:20;;;;;;;0.10;0.10;;;;;;;14.88;nan;99888.41;7392258;19;20014;-79
2023/09/27 02:44:47;;;;;;;0.60;0.40;;;;;;;14.85;nan;99892.25;7391985;19;20010;-79
2023/09/27 02:47:13;;;;;;;1.27;0.50;;;;;;;14.83;nan;99889.19;7389986;19;20014;-79
2023/09/27 02:49:40;;;;;;;1.50;0.85;;;;;;;14.80;nan;99895.78;7391461;19;20014;-79
2023/09/27 02:52:09;;;;;;;1.05;0.20;;;;;;;14.78;nan;99898.31;7390423;19;20337;-79
2023/09/27 02:54:36;;;;;;;0.17;0.13;;;;;;;14.77;nan;99905.19;7389719;19;20021;-79
2023/09/27 02:57:02;;;;;;;6.43;0.73;;;;;;;14.78;nan;99908.78;7391811;19;20046;-79
2023/09/27 02:59:29;;;;;;;1.10;0.80;;;;;;;14.77;nan;99908.00;7390750;19;20010;-79
2023/09/27 03:01:56;;;;;;;7.88;0.65;;;;;;;14.77;nan;99899.59;7394584;19;20018;-79
2023/09/27 03:04:22;;;;;;;1.85;0.47;;;;;;;14.76;nan;99900.88;7390337;19;20018;-79
2023/09/27 03:06:49;;;;;;;1.10;0.43;;;;;;;14.73;nan;99901.88;7388792;19;20022;-79
2023/09/27 03:09:16;;;;;;;0.55;0.52;;;;;;;14.68;nan;99905.44;7389404;19;20540;-79
2023/09/27 03:11:43;;;;;;;0.30;0.25;;;;;;;14.66;nan;99912.81;7391926;19;20476;-79
2023/09/27 03:14:09;;;;;;;0.10;0.00;;;;;;;14.63;nan;99914.56;7389176;19;20011;-79
2023/09/27 03:16:35;;;;;;;0.68;0.55;;;;;;;14.59;nan;99916.84;7389700;19;20035;-78
2023/09/27 03:19:02;;;;;;;4.50;0.50;;;;;;;14.58;nan;99922.94;7390101;19;20487;-79
2023/09/27 03:21:29;;;;;;;1.83;0.55;;;;;;;14.58;nan;99906.88;7392990;19;20018;-79
2023/09/27 03:23:56;;;;;;;0.20;0.20;;;;;;;14.59;nan;99916.84;7389309;19;20077;-80
2023/09/27 03:26:23;;;;;;;0.10;0.10;;;;;;;14.60;nan;99918.38;7390332;19;20577;-79
2023/09/27 03:28:51;;;;;;;4.75;0.65;;;;;;;14.64;nan;99918.16;7391425;19;20018;-79
2023/09/27 03:31:19;;;;;;;0.77;0.30;;;;;;;14.61;nan;99927.53;7392468;19;20090;-79
2023/09/27 03:33:46;;;;;;;5.95;1.42;;;;;;;14.61;nan;99927.53;7389956;19;20464;-79
2023/09/27 03:36:14;;;;;;;0.35;0.30;;;;;;;14.59;nan;99930.84;7388593;19;20010;-79
2023/09/27 03:38:40;;;;;;;0.45;0.30;;;;;;;14.59;nan;99927.28;7389667;19;20014;-79
2023/09/27 03:41:09;;;;;;;0.45;0.43;;;;;;;14.58;nan;99922.94;7391569;19;20007;-79
2023/09/27 03:43:35;;;;;;;0.10;0.10;;;;;;;14.57;nan;99922.19;7390565;19;20014;-79
2023/09/27 03:46:03;;;;;;;1.45;0.30;;;;;;;14.58;nan;99920.13;7386136;19;20010;-79
2023/09/27 03:48:31;;;;;;;0.30;0.30;;;;;;;14.58;nan;99926.50;7389030;19;20032;-79
2023/09/27 03:50:57;;;;;;;1.17;1.08;;;;;;;14.56;nan;99917.84;7392520;19;20018;-79
2023/09/27 03:53:25;;;;;;;0.17;0.17;;;;;;;14.54;nan;99899.97;7387639;19;20015;-79
2023/09/27 03:55:52;;;;;;;1.13;0.30;;;;;;;14.46;nan;99899.69;7388125;19;20479;-79
2023/09/27 03:58:18;;;;;;;0.17;0.17;;;;;;;14.47;nan;99901.22;7390350;19;20027;-79
2023/09/27 04:00:47;;;;;;;1.08;0.52;;;;;;;14.46;nan;99893.31;7396082;19;20481;-79
2023/09/27 04:03:13;;;;;;;0.30;0.30;;;;;;;14.49;nan;99890.28;7397825;19;20021;-79
2023/09/27 04:05:39;;;;;;;5.05;0.80;;;;;;;14.32;nan;99884.59;7395098;19;20026;-79
2023/09/27 04:08:06;;;;;;;0.40;0.40;;;;;;;14.54;nan;99883.94;7395615;19;20014;-79
2023/09/27 04:10:33;;;;;;;1.70;0.75;;;;;;;14.59;nan;99880.41;7399470;19;20047;-79
2023/09/27 04:13:00;;;;;;;0.10;0.10;;;;;;;14.60;nan;99878.34;7393705;19;20402;-79
2023/09/27 04:15:26;;;;;;;3.60;0.63;;;;;;;14.64;nan;99870.50;7393114;19;20018;-79
2023/09/27 04:17:52;;;;;;;0.73;0.40;;;;;;;14.70;nan;99852.44;7397368;19;20045;-79
2023/09/27 04:20:18;;;;;;;2.30;0.68;;;;;;;14.70;nan;99852.44;7397087;19;20014;-79
2023/09/27 04:22:47;;;;;;;0.30;0.20;;;;;;;14.63;nan;99863.34;7395998;19;20011;-79
2023/09/27 04:25:15;;;;;;;0.88;0.43;;;;;;;14.67;nan;99856.22;7394838;19;20034;-79
2023/09/27 04:27:43;;;;;;;2.60;1.17;;;;;;;14.71;nan;99856.75;7396404;19;20357;-79
2023/09/27 04:30:12;;;;;;;0.10;0.10;;;;;;;14.75;nan;99854.47;7396154;19;20078;-79
2023/09/27 04:32:43;;;;;;;7.72;0.57;;;;;;;14.76;nan;99855.25;7392792;19;20054;-79
2023/09/27 04:35:10;;;;;;;0.10;0.10;;;;;;;14.76;nan;99866.44;7394830;19;20078;-79
2023/09/27 04:37:37;;;;;;;0.10;0.10;;;;;;;14.90;nan;99871.09;7395127;19;20082;-79
2023/09/27 04:40:13;;;;;;;0.22;0.22;;;;;;;14.96;nan;99869.84;7396690;19;20433;-79
2023/09/27 04:42:44;;;;;;;2.90;0.80;;;;;;;14.97;nan;99859.38;7396595;19;20031;-80
2023/09/27 04:45:12;;;;;;;0.10;0.10;;;;;;;15.00;nan;99859.16;7393129;19;20014;-79
2023/09/27 04:47:39;;;;;;;0.30;0.20;;;;;;;15.00;nan;99870.38;7395344;19;20571;-79
2023/09/27 04:50:10;;;;;;;0.20;0.10;;;;;;;15.05;nan;99868.84;7398436;19;20010;-79
2023/09/27 04:52:37;;;;;;;0.22;0.22;;;;;;;15.06;nan;99876.75;7395233;19;20082;-79
2023/09/27 04:55:04;;;;;;;2.17;0.57;;;;;;;15.07;nan;99864.25;7394369;19;20034;-79
2023/09/27 04:57:30;;;;;;;0.40;0.40;;;;;;;15.10;nan;99865.28;7396495;19;20341;-79
2023/09/27 04:59:56;;;;;;;3.03;0.52;;;;;;;15.08;nan;99854.56;7395294;19;20475;-79
2023/09/27 05:02:23;;;;;;;0.63;0.13;;;;;;;15.05;nan;99849.97;7394928;19;20015;-79
2023/09/27 05:04:49;;;;;;;1.13;0.65;;;;;;;15.05;nan;99855.59;7394799;19;20017;-79
2023/09/27 05:07:17;;;;;;;0.52;0.52;;;;;;;15.04;nan;99842.06;7395150;19;20420;-79
2023/09/27 05:09:43;;;;;;;2.80;0.47;;;;;;;15.02;nan;99841.81;7396098;19;20479;-79
2023/09/27 05:12:09;;;;;;;0.73;0.40;;;;;;;15.03;nan;99863.75;7396337;19;20011;-79
2023/09/27 05:14:35;;;;;;;0.30;0.20;;;;;;;15.03;nan;99854.56;7393707;19;20078;-79
2023/09/27 05:17:01;;;;;;;1.30;0.75;;;;;;;15.00;nan;99861.19;7394056;19;20018;-79
2023/09/27 05:19:27;;;;;;;0.60;0.30;;;;;;;14.97;nan;99868.56;7393402;19;20014;-79
2023/09/27 05:21:53;;;;;;;0.10;0.10;;;;;;;14.99;nan;99870.84;7396650;19;20011;-80
2023/09/27 05:24:20;;;;;;;0.20;0.20;;;;;;;15.02;nan;99873.44;7394142;19;20031;-80
2023/09/27 05:26:46;;;;;;;0.10;0.10;;;;;;;15.06;nan;99876.75;7394314;19;20015;-79
2023/09/27 05:29:14;;;;;;;0.47;0.47;;;;;;;15.08;nan;99885.44;7395311;19;20111;-79
2023/09/27 05:31:41;;;;;;;1.35;0.25;;;;;;;15.08;nan;99873.44;7395063;19;20494;-79
2023/09/27 05:34:07;;;;;;;0.82;0.38;;;;;;;15.05;nan;99863.25;7392620;19;20037;-79
2023/09/27 05:36:34;;;;;;;1.38;0.75;;;;;;;15.00;nan;99859.16;7393783;19;20019;-79
2023/09/27 05:39:06;;;;;;;16.33;0.73;;;;;;;15.01;nan;99859.91;7394698;19;20078;-79
2023/09/27 05:41:33;;;;;;;0.10;0.10;;;;;;;14.95;nan;99850.72;7397617;19;20017;-79
2023/09/27 05:43:59;;;;;;;1.30;0.50;;;;;;;14.87;nan;99844.84;7392286;19;20018;-79
2023/09/27 05:46:28;;;;;;;0.47;0.20;;;;;;;14.81;nan;99834.88;7393035;19;20015;-79
2023/09/27 05:48:54;;;;;;;0.10;0.10;;;;;;;14.84;nan;99817.81;7392698;19;20354;-79
2023/09/27 05:51:21;;;;;;;1.95;0.30;;;;;;;14.84;nan;99806.59;7398002;19;20023;-79
2023/09/27 05:53:52;;;;;;;1.75;0.73;;;;;;;14.82;nan;99795.13;7391916;19;20046;-79
2023/09/27 05:56:18;;;;;;;0.40;0.40;;;;;;;14.80;nan;99782.88;7392616;19;20011;-79
2023/09/27 05:58:44;;;;;;;8.25;0.75;;;;;;;14.78;nan;99772.16;7393660;19;20018;-78
2023/09/27 06:01:11;;;;;;;0.22;0.22;;;;;;;14.75;nan;99753.53;7394151;19;20037;-79
2023/09/27 06:03:38;;;;;;;0.15;0.13;;;;;;;14.74;nan;99726.03;7394293;19;20014;-79
2023/09/27 06:06:05;;;;;;;0.40;0.40;;;;;;;14.69;nan;99715.56;7392916;19;20030;-79
2023/09/27 06:08:31;;;;;;;0.63;0.40;;;;;;;14.72;nan;99726.53;7391066;19;20018;-79
2023/09/27 06:10:59;;;;;;;2.90;0.55;;;;;;;14.74;nan;99714.81;7396017;19;20022;-79
2023/09/27 06:13:26;;;;;;;1.75;0.32;;;;;;;14.76;nan;99715.06;7391601;19;20028;-79
2023/09/27 06:15:54;;;;;;;0.10;0.08;;;;;;;14.77;nan;99711.75;7390984;19;20018;-79
2023/09/27 06:18:21;;;;;;;9.15;1.75;;;;;;;14.76;nan;99715.84;7391617;19;20017;-79
2023/09/27 06:20:47;;;;;;;3.78;1.42;;;;;;;14.77;nan;99706.16;7393724;19;20018;-79
2023/09/27 06:23:13;;;;;;;0.20;0.20;;;;;;;14.80;nan;99705.13;7391876;19;20015;-79
2023/09/27 06:25:43;;;;;;;0.75;0.75;;;;;;;14.79;nan;99698.00;7391909;19;20349;-79
2023/09/27 06:28:13;;;;;;;0.75;0.50;;;;;;;14.84;nan;99688.81;7391750;19;20038;-79
2023/09/27 06:30:40;;;;;;;0.55;0.40;;;;;;;14.84;nan;99669.19;7393339;19;20018;-79
2023/09/27 06:33:08;;;;;;;0.35;0.35;;;;;;;14.91;nan;99674.31;7389277;19;20023;-79
2023/09/27 06:35:38;;;;;;;0.10;0.10;;;;;;;14.95;nan;99679.66;7391159;19;20033;-79
2023/09/27 06:38:05;;;;;;;0.95;0.55;;;;;;;14.90;nan;99675.56;7391189;19;20010;-79
2023/09/27 06:40:32;;;;;;;0.77;0.75;;;;;;;14.92;nan;99672.28;7392335;19;20006;-79
2023/09/27 06:42:58;;;;;;;0.50;0.50;;;;;;;15.10;nan;99689.34;7391396;19;20032;-79
2023/09/27 06:45:25;;;;;;;0.10;0.10;;;;;;;15.19;nan;99703.13;7390700;19;20026;-79
2023/09/27 06:47:51;;;;;;;0.63;0.32;;;;;;;15.30;nan;99721.22;7392806;19;20026;-79
2023/09/27 06:50:17;;;;;;;0.10;0.10;;;;;;;15.38;nan;99736.25;7392785;19;20010;-79
2023/09/27 06:52:45;;;;;;;0.63;0.38;;;;;;;15.43;nan;99753.13;7390396;19;20010;-79
2023/09/27 06:55:12;;;;;;;1.05;0.85;;;;;;;15.54;nan;99769.19;7389640;19;20019;-79
2023/09/27 06:57:46;;;;;;;0.28;0.20;;;;;;;15.65;nan;99783.22;7392411;19;20026;-79
2023/09/27 07:00:18;;;;;;;0.57;0.52;;;;;;;15.74;nan;99780.88;7392838;19;20015;-79
2023/09/27 07:02:54;;;;;;;0.20;0.13;;;;;;;15.84;nan;99801.06;7389989;19;20728;-79
2023/09/27 07:05:23;;;;;;;6.05;0.63;;;;;;;15.95;nan;99798.22;7389576;19;20034;-79
2023/09/27 07:07:49;;;;;;;5.43;0.73;;;;;;;16.04;nan;99797.94;7392201;19;20054;-79
2023/09/27 07:10:16;;;;;;;0.10;0.10;;;;;;;16.18;nan;99802.50;7394340;19;20015;-79
2023/09/27 07:12:42;;;;;;;0.15;0.15;;;;;;;16.29;nan;99813.72;7388894;19;20022;-79
2023/09/27 07:15:13;;;;;;;0.10;0.00;;;;;;;16.41;nan;99825.69;7389788;19;20029;-79
2023/09/27 07:17:40;;;;;;;0.20;0.20;;;;;;;16.48;nan;99839.97;7391537;19;20010;-79
2023/09/27 07:20:27;;;;;;;7.22;0.45;;;;;;;16.57;nan;99834.09;7392550;19;20417;-79
2023/09/27 07:22:54;;;;;;;0.45;0.35;;;;;;;16.61;nan;99843.00;7391189;19;20029;-79
2023/09/27 07:25:21;;;;;;;1.30;0.40;;;;;;;16.68;nan;99844.50;7387415;19;20015;-79
2023/09/27 07:27:48;;;;;;;1.48;0.52;;;;;;;16.75;nan;99834.78;7389063;19;20018;-79
2023/09/27 07:30:18;;;;;;;0.30;0.30;;;;;;;16.89;nan;99830.88;7390458;19;20018;-79
2023/09/27 07:32:45;;;;;;;0.10;0.10;;;;;;;16.98;nan;99824.94;7392165;19;20015;-79
2023/09/27 07:35:14;;;;;;;1.95;1.05;;;;;;;17.07;nan;99819.00;7394055;19;20018;-79
2023/09/27 07:37:44;;;;;;;12.00;1.05;;;;;;;17.11;nan;99817.44;7398379;19;20011;-79
2023/09/27 07:40:12;;;;;;;2.65;0.38;;;;;;;17.12;nan;99813.34;7397463;19;20346;-79
2023/09/27 07:42:42;;;;;;;0.10;0.10;;;;;;;17.16;nan;99805.38;7398499;19;20419;-79
2023/09/27 07:45:21;;;;;;;1.60;0.93;;;;;;;17.26;nan;99797.38;7398913;19;20011;-80
2023/09/27 07:47:50;;;;;;;1.15;0.40;;;;;;;17.33;nan;99789.13;7396928;19;20357;-80
2023/09/27 07:50:18;;;;;;;3.72;0.28;;;;;;;17.38;nan;99785.50;7400465;19;20034;-79
2023/09/27 07:52:44;;;;;;;0.10;0.10;;;;;;;17.45;nan;99787.00;7394144;19;20463;-79
2023/09/27 07:55:14;;;;;;;0.98;0.30;;;;;;;17.47;nan;99759.06;7394345;19;20015;-79
2023/09/27 07:57:43;;;;;;;4.10;0.52;;;;;;;17.52;nan;99754.72;7400561;19;20070;-80
2023/09/27 08:00:11;;;;;;;0.63;0.30;;;;;;;17.58;nan;99750.56;7396235;19;20588;-80
2023/09/27 08:02:40;;;;;;;3.58;0.47;;;;;;;17.66;nan;99748.69;7396614;19;20015;-80
2023/09/27 08:05:10;;;;;;;2.05;0.65;;;;;;;17.73;nan;99727.63;7394405;19;20014;-79
2023/09/27 08:07:37;;;;;;;2.55;0.55;;;;;;;17.80;nan;99730.59;7396414;19;20018;-80
2023/09/27 08:10:05;;;;;;;1.30;0.75;;;;;;;17.90;nan;99743.06;7399325;19;20096;-80
2023/09/27 08:12:33;;;;;;;0.43;0.20;;;;;;;17.94;nan;99739.94;7395751;19;20421;-80
2023/09/27 08:15:03;;;;;;;4.47;1.17;;;;;;;18.01;nan;99748.56;7395182;19;20082;-79
2023/09/27 08:17:31;;;;;;;1.77;0.35;;;;;;;18.26;nan;99748.56;7396289;19;20010;-80
2023/09/27 08:20:03;;;;;;;4.45;1.00;;;;;;;18.28;nan;99752.34;7396586;19;20006;-80
2023/09/27 08:22:29;;;;;;;1.38;0.47;;;;;;;18.24;nan;99759.56;7396865;19;20049;-79
2023/09/27 08:24:55;;;;;;;1.20;0.52;;;;;;;18.18;nan;99751.19;7392944;19;20031;-79
2023/09/27 08:27:21;;;;;;;0.63;0.63;;;;;;;18.28;nan;99743.16;7395849;19;20472;-80
2023/09/27 08:29:47;;;;;;;0.43;0.20;;;;;;;18.42;nan;99753.97;7397240;19;20014;-79
2023/09/27 08:32:13;;;;;;;1.02;0.52;;;;;;;18.54;nan;99754.59;7397361;19;20013;-79
2023/09/27 08:34:40;;;;;;;3.00;0.52;;;;;;;18.65;nan;99751.63;7394519;19;20092;-79
2023/09/27 08:37:06;;;;;;;0.20;0.08;;;;;;;18.69;nan;99740.84;7396467;19;20018;-80
2023/09/27 08:39:32;;;;;;;1.45;0.35;;;;;;;18.66;nan;99737.00;7394112;19;20002;-80
2023/09/27 08:41:58;;;;;;;5.72;0.50;;;;;;;18.70;nan;99739.53;7399424;19;20022;-80
2023/09/27 08:44:25;;;;;;;1.33;0.20;;;;;;;18.79;nan;99731.44;7395109;19;20019;-80
2023/09/27 08:46:56;;;;;;;0.95;0.63;;;;;;;18.90;nan;99733.34;7392807;19;20038;-79
2023/09/27 08:49:24;;;;;;;8.50;0.35;;;;;;;18.92;nan;99727.91;7396212;19;20029;-79
2023/09/27 08:51:52;;;;;;;1.08;0.10;;;;;;;18.97;nan;99734.78;7397561;19;20027;-79
2023/09/27 08:54:19;;;;;;;0.73;0.32;;;;;;;18.97;nan;99718.59;7393455;19;20015;-79
2023/09/27 08:56:50;;;;;;;2.47;0.82;;;;;;;18.98;nan;99720.13;7393550;19;20022;-79
2023/09/27 08:59:18;;;;;;;4.15;0.47;;;;;;;19.00;nan;99700.56;7395063;19;20029;-79
2023/09/27 09:01:46;;;;;;;3.22;0.55;;;;;;;19.06;nan;99698.41;7398667;19;20023;-79
2023/09/27 09:04:12;;;;;;;1.45;0.85;;;;;;;19.20;nan;99702.81;7394502;19;20018;-79
2023/09/27 09:06:41;;;;;;;1.65;0.30;;;;;;;19.31;nan;99705.47;7395108;19;20576;-79
2023/09/27 09:09:11;;;;;;;1.60;0.25;;;;;;;19.43;nan;99703.22;7394110;19;20015;-79
2023/09/27 09:11:38;;;;;;;0.10;0.10;;;;;;;19.76;nan;99701.84;7396533;19;20070;-79
2023/09/27 09:14:04;;;;;;;0.52;0.40;;;;;;;19.90;nan;99672.28;7394016;19;20082;-79
2023/09/27 09:16:39;;;;;;;0.95;0.30;;;;;;;20.05;nan;99647.03;7393356;19;20026;-79
2023/09/27 09:19:25;;;;;;;3.05;0.08;;;;;;;20.30;nan;99597.41;7394954;19;20014;-79
2023/09/27 09:22:04;;;;;;;1.77;0.10;;;;;;;20.40;nan;99604.09;7396187;19;20372;-79
2023/09/27 09:24:35;;;;;;;2.72;0.30;;;;;;;20.43;nan;99605.84;7393952;19;20027;-79
2023/09/27 09:27:09;;;;;;;2.00;0.30;;;;;;;20.48;nan;99604.19;7396028;19;20018;-79
2023/09/27 09:29:53;;;;;;;0.30;0.10;;;;;;;20.50;nan;99599.53;7394376;19;20399;-79
2023/09/27 09:32:21;;;;;;;0.55;0.20;;;;;;;20.61;nan;99604.16;7391905;19;20019;-79
2023/09/27 09:34:52;;;;;;;4.00;0.52;;;;;;;20.70;nan;99629.91;7397826;19;20014;-79
2023/09/27 09:37:23;;;;;;;0.52;0.30;;;;;;;20.81;nan;99620.38;7394425;19;20018;-79
2023/09/27 09:39:51;;;;;;;0.52;0.10;;;;;;;20.97;nan;99625.63;7394515;19;20014;-79
2023/09/27 09:42:31;;;;;;;1.27;0.47;;;;;;;21.04;nan;99599.47;7392821;19;20496;-79
2023/09/27 09:45:10;;;;;;;0.90;0.40;;;;;;;21.13;nan;99576.34;7392511;19;20033;-79
2023/09/27 09:47:41;;;;;;;0.25;0.15;;;;;;;21.24;nan;99586.59;7392719;19;20468;-79
2023/09/27 09:50:16;;;;;;;9.93;0.77;;;;;;;21.21;nan;99610.38;7395086;19;20018;-79
2023/09/27 09:53:04;;;;;;;0.45;0.20;;;;;;;21.08;nan;99614.03;7392260;19;20007;-79
2023/09/27 09:55:31;;;;;;;2.33;0.55;;;;;;;20.97;nan;99600.13;7390075;19;20099;-79
2023/09/27 09:58:10;;;;;;;0.98;0.40;;;;;;;21.16;nan;99573.69;7392164;19;20024;-79
2023/09/27 10:00:42;;;;;;;0.85;0.20;;;;;;;20.98;nan;99581.84;7392256;19;20018;-79
2023/09/27 10:03:15;;;;;;;0.40;0.30;;;;;;;21.12;nan;99593.84;7391657;19;20028;-79
2023/09/27 10:05:42;;;;;;;1.15;0.70;;;;;;;21.23;nan;99601.28;7389993;19;20019;-79
2023/09/27 10:08:08;;;;;;;0.57;0.22;;;;;;;21.17;nan;99592.19;7395006;19;20085;-79
2023/09/27 10:10:36;;;;;;;0.50;0.45;;;;;;;21.26;nan;99580.38;7394973;19;20018;-79
2023/09/27 10:13:05;;;;;;;0.68;0.08;;;;;;;21.36;nan;99576.47;7391830;19;20018;-80
2023/09/27 10:15:33;;;;;;;0.20;0.10;;;;;;;21.46;nan;99585.22;7390739;19;20015;-79
2023/09/27 10:18:21;;;;;;;0.45;0.30;;;;;;;21.47;nan;99569.72;7390539;19;20021;-80
2023/09/27 10:23:35;;;;;;;7.78;0.25;;;;;;;21.31;nan;99573.81;7392884;19;20021;-79
2023/09/27 10:26:18;;;;;;;1.13;0.20;;;;;;;21.04;nan;99574.00;7388931;19;20026;-78
2023/09/27 10:29:06;;;;;;;3.08;0.52;;;;;;;20.96;nan;99561.81;7392733;19;20019;-78
2023/09/27 10:31:38;;;;;;;4.00;0.35;;;;;;;20.88;nan;99555.34;7388899;19;20386;-78
2023/09/27 10:34:26;;;;;;;2.20;0.43;;;;;;;20.93;nan;99528.97;7391660;19;20019;-79
2023/09/27 10:36:59;;;;;;;0.25;0.00;;;;;;;20.92;nan;99504.78;7390079;19;20020;-81
2023/09/27 10:39:25;;;;;;;0.50;0.25;;;;;;;20.91;nan;99474.19;7392411;19;20026;-79
2023/09/27 10:41:53;;;;;;;0.65;0.30;;;;;;;20.95;nan;99443.47;7390328;19;20015;-83
2023/09/27 10:44:33;;;;;;;2.10;0.47;;;;;;;20.98;nan;99445.94;7389810;19;20574;-80
2023/09/27 10:47:04;;;;;;;0.98;0.63;;;;;;;21.00;nan;99460.31;7391480;19;20022;-79
2023/09/27 10:49:38;;;;;;;0.95;0.63;;;;;;;21.00;nan;99468.03;7391814;19;20425;-83
2023/09/27 10:52:15;;;;;;;4.70;0.43;;;;;;;20.99;nan;99475.00;7389243;19;20019;-83
2023/09/27 10:54:43;;;;;;;0.35;0.10;;;;;;;20.99;nan;99472.94;7391452;19;20022;-81
2023/09/27 10:57:09;;;;;;;1.70;0.52;;;;;;;20.96;nan;99491.03;7389865;19;20021;-82
2023/09/27 10:59:36;;;;;;;1.02;0.50;;;;;;;20.95;nan;99489.53;7390176;19;20014;-83
2023/09/27 11:02:06;;;;;;;1.98;0.77;;;;;;;20.97;nan;99495.38;7389986;19;20018;-83
2023/09/27 11:04:33;;;;;;;2.20;0.95;;;;;;;21.00;nan;99477.28;7390624;19;20448;-83
2023/09/27 11:06:59;;;;;;;1.67;1.15;;;;;;;21.03;nan;99487.50;7395363;19;20018;-83
2023/09/27 11:09:27;;;;;;;1.10;0.52;;;;;;;20.98;nan;99485.59;7389434;19;20026;-84
2023/09/27 11:11:55;;;;;;;2.08;0.75;;;;;;;20.97;nan;99483.28;7390586;19;20014;-86
2023/09/27 11:14:32;;;;;;;2.90;0.57;;;;;;;20.91;nan;99462.88;7388726;19;20117;-82
2023/09/27 11:17:25;;;;;;;1.35;0.98;;;;;;;20.85;nan;99463.03;7388233;19;20014;-82
2023/09/27 11:19:52;;;;;;;7.07;0.50;;;;;;;20.80;nan;99452.63;7393022;19;20014;-84
2023/09/27 11:22:28;;;;;;;1.13;0.40;;;;;;;20.84;nan;99429.59;7388863;19;20316;-82
2023/09/27 11:24:55;;;;;;;0.40;0.40;;;;;;;20.86;nan;99415.66;7390663;19;20022;-82
2023/09/27 11:27:22;;;;;;;5.00;0.63;;;;;;;20.88;nan;99416.63;7389935;19;20103;-83
2023/09/27 11:29:54;;;;;;;1.30;0.70;;;;;;;20.86;nan;99399.44;7391639;19;20011;-82
2023/09/27 11:32:20;;;;;;;4.28;1.27;;;;;;;20.94;nan;99394.56;7388041;19;20469;-81
2023/09/27 11:34:57;;;;;;;0.82;0.40;;;;;;;21.06;nan;99378.81;7388650;19;20475;-80
2023/09/27 11:37:24;;;;;;;1.67;0.98;;;;;;;21.17;nan;99359.97;7389321;19;20098;-79
2023/09/27 11:39:52;;;;;;;1.30;0.60;;;;;;;21.18;nan;99350.16;7388659;19;20022;-84
2023/09/27 11:42:23;;;;;;;1.15;0.28;;;;;;;21.20;nan;99347.53;7390601;19;20031;-81
2023/09/27 11:45:04;;;;;;;;;;;;;;;21.11;nan;99352.38;7389016;19;20014;-84
2023/09/27 11:47:44;;;;;;;1.45;0.88;;;;;;;21.05;nan;99336.91;7386824;19;20341;-83
2023/09/27 11:50:10;;;;;;;1.98;0.50;;;;;;;21.08;nan;99345.03;7390412;19;20127;-82
2023/09/27 11:52:37;;;;;;;4.25;0.52;;;;;;;21.12;nan;99331.25;7389606;19;20023;-80
2023/09/27 11:55:04;;;;;;;4.97;1.70;;;;;;;21.11;nan;99338.22;7390521;19;20014;-80
2023/09/27 11:57:30;;;;;;;2.67;0.80;;;;;;;21.12;nan;99331.25;7389903;19;20094;-77
2023/09/27 11:59:56;;;;;;;4.18;0.77;;;;;;;21.07;nan;99335.00;7390127;19;20015;-87